<?xml version="1.0" encoding="UTF-8" standalone="no" ?>
<gpx xmlns="http://www.topografix.com/GPX/1/1" xmlns:xsi="http://www.w3.org/2001/XMLSchema-instance" xsi:schemaLocation="http://www.topografix.com/GPX/1/1 http://www.topografix.com/GPX/1/1/gpx.xsd" version="1.1" creator="VisuGPX - https://www.visugpx.com">
  <metadata>
    <name>tristar deauville vélo</name>
    <desc><![CDATA[tristar deauville parcours vélo]]></desc>
  </metadata>
  <trk>
    <name><![CDATA[tristar deauvil]]></name>
    <trkseg>
      <trkpt lat="49.358" lon="0.06763">
        <ele>8</ele>
        <time>2011-09-05T00:00:00Z</time>
      </trkpt>
      <trkpt lat="49.35777" lon="0.06797">
        <ele>8</ele>
        <time>2011-09-05T00:00:04Z</time>
      </trkpt>
      <trkpt lat="49.35748" lon="0.06749">
        <ele>8</ele>
        <time>2011-09-05T00:00:10Z</time>
      </trkpt>
      <trkpt lat="49.35661" lon="0.06605">
        <ele>9</ele>
        <time>2011-09-05T00:00:29Z</time>
      </trkpt>
      <trkpt lat="49.35514" lon="0.06802">
        <ele>6</ele>
        <time>2011-09-05T00:00:55Z</time>
      </trkpt>
      <trkpt lat="49.3556" lon="0.0693">
        <ele>6</ele>
        <time>2011-09-05T00:01:08Z</time>
      </trkpt>
      <trkpt lat="49.35406" lon="0.07063">
        <ele>6</ele>
        <time>2011-09-05T00:01:31Z</time>
      </trkpt>
      <trkpt lat="49.35161" lon="0.07097">
        <ele>6</ele>
        <time>2011-09-05T00:02:04Z</time>
      </trkpt>
      <trkpt lat="49.35114" lon="0.07126">
        <ele>12</ele>
        <time>2011-09-05T00:02:27Z</time>
      </trkpt>
      <trkpt lat="49.3502" lon="0.07195">
        <ele>26</ele>
        <time>2011-09-05T00:03:13Z</time>
      </trkpt>
      <trkpt lat="49.35003" lon="0.07214">
        <ele>28</ele>
        <time>2011-09-05T00:03:22Z</time>
      </trkpt>
      <trkpt lat="49.34989" lon="0.07245">
        <ele>31</ele>
        <time>2011-09-05T00:03:32Z</time>
      </trkpt>
      <trkpt lat="49.34986" lon="0.0727">
        <ele>33</ele>
        <time>2011-09-05T00:03:38Z</time>
      </trkpt>
      <trkpt lat="49.34989" lon="0.07334">
        <ele>38</ele>
        <time>2011-09-05T00:03:56Z</time>
      </trkpt>
      <trkpt lat="49.34986" lon="0.07348">
        <ele>39</ele>
        <time>2011-09-05T00:04:00Z</time>
      </trkpt>
      <trkpt lat="49.34968" lon="0.07372">
        <ele>43</ele>
        <time>2011-09-05T00:04:12Z</time>
      </trkpt>
      <trkpt lat="49.34892" lon="0.07403">
        <ele>55</ele>
        <time>2011-09-05T00:04:51Z</time>
      </trkpt>
      <trkpt lat="49.34869" lon="0.07405">
        <ele>56</ele>
        <time>2011-09-05T00:04:59Z</time>
      </trkpt>
      <trkpt lat="49.34853" lon="0.07396">
        <ele>58</ele>
        <time>2011-09-05T00:05:05Z</time>
      </trkpt>
      <trkpt lat="49.34845" lon="0.07374">
        <ele>59</ele>
        <time>2011-09-05T00:05:10Z</time>
      </trkpt>
      <trkpt lat="49.34836" lon="0.07363">
        <ele>60</ele>
        <time>2011-09-05T00:05:14Z</time>
      </trkpt>
      <trkpt lat="49.34716" lon="0.07235">
        <ele>73</ele>
        <time>2011-09-05T00:06:03Z</time>
      </trkpt>
      <trkpt lat="49.3469" lon="0.07215">
        <ele>73</ele>
        <time>2011-09-05T00:06:09Z</time>
      </trkpt>
      <trkpt lat="49.3463" lon="0.07193">
        <ele>76</ele>
        <time>2011-09-05T00:06:22Z</time>
      </trkpt>
      <trkpt lat="49.3447" lon="0.07181">
        <ele>80</ele>
        <time>2011-09-05T00:06:53Z</time>
      </trkpt>
      <trkpt lat="49.34355" lon="0.07189">
        <ele>78</ele>
        <time>2011-09-05T00:07:09Z</time>
      </trkpt>
      <trkpt lat="49.34333" lon="0.07192">
        <ele>77</ele>
        <time>2011-09-05T00:07:12Z</time>
      </trkpt>
      <trkpt lat="49.34267" lon="0.07223">
        <ele>77</ele>
        <time>2011-09-05T00:07:21Z</time>
      </trkpt>
      <trkpt lat="49.34225" lon="0.07234">
        <ele>77</ele>
        <time>2011-09-05T00:07:29Z</time>
      </trkpt>
      <trkpt lat="49.34046" lon="0.07252">
        <ele>81</ele>
        <time>2011-09-05T00:08:00Z</time>
      </trkpt>
      <trkpt lat="49.33968" lon="0.0723">
        <ele>83</ele>
        <time>2011-09-05T00:08:16Z</time>
      </trkpt>
      <trkpt lat="49.33807" lon="0.07169">
        <ele>88</ele>
        <time>2011-09-05T00:08:50Z</time>
      </trkpt>
      <trkpt lat="49.33552" lon="0.06873">
        <ele>95</ele>
        <time>2011-09-05T00:09:49Z</time>
      </trkpt>
      <trkpt lat="49.33522" lon="0.06845">
        <ele>95</ele>
        <time>2011-09-05T00:09:54Z</time>
      </trkpt>
      <trkpt lat="49.33497" lon="0.06833">
        <ele>95</ele>
        <time>2011-09-05T00:09:58Z</time>
      </trkpt>
      <trkpt lat="49.33497" lon="0.06833">
        <ele>95</ele>
        <time>2011-09-05T00:09:59Z</time>
      </trkpt>
      <trkpt lat="49.33483" lon="0.0683">
        <ele>95</ele>
        <time>2011-09-05T00:10:00Z</time>
      </trkpt>
      <trkpt lat="49.33502" lon="0.06916">
        <ele>95</ele>
        <time>2011-09-05T00:10:08Z</time>
      </trkpt>
      <trkpt lat="49.33507" lon="0.06955">
        <ele>95</ele>
        <time>2011-09-05T00:10:12Z</time>
      </trkpt>
      <trkpt lat="49.33517" lon="0.07163">
        <ele>95</ele>
        <time>2011-09-05T00:10:30Z</time>
      </trkpt>
      <trkpt lat="49.33522" lon="0.07208">
        <ele>94</ele>
        <time>2011-09-05T00:10:34Z</time>
      </trkpt>
      <trkpt lat="49.3356" lon="0.07399">
        <ele>94</ele>
        <time>2011-09-05T00:10:51Z</time>
      </trkpt>
      <trkpt lat="49.33565" lon="0.07473">
        <ele>93</ele>
        <time>2011-09-05T00:10:58Z</time>
      </trkpt>
      <trkpt lat="49.33564" lon="0.07588">
        <ele>93</ele>
        <time>2011-09-05T00:11:08Z</time>
      </trkpt>
      <trkpt lat="49.33585" lon="0.07817">
        <ele>88</ele>
        <time>2011-09-05T00:11:28Z</time>
      </trkpt>
      <trkpt lat="49.33595" lon="0.07865">
        <ele>86</ele>
        <time>2011-09-05T00:11:32Z</time>
      </trkpt>
      <trkpt lat="49.33623" lon="0.07953">
        <ele>85</ele>
        <time>2011-09-05T00:11:41Z</time>
      </trkpt>
      <trkpt lat="49.3366" lon="0.08089">
        <ele>78</ele>
        <time>2011-09-05T00:11:54Z</time>
      </trkpt>
      <trkpt lat="49.33684" lon="0.08261">
        <ele>76</ele>
        <time>2011-09-05T00:12:09Z</time>
      </trkpt>
      <trkpt lat="49.33676" lon="0.08308">
        <ele>72</ele>
        <time>2011-09-05T00:12:13Z</time>
      </trkpt>
      <trkpt lat="49.33565" lon="0.08541">
        <ele>55</ele>
        <time>2011-09-05T00:12:38Z</time>
      </trkpt>
      <trkpt lat="49.33545" lon="0.08594">
        <ele>49</ele>
        <time>2011-09-05T00:12:44Z</time>
      </trkpt>
      <trkpt lat="49.3354" lon="0.08632">
        <ele>45</ele>
        <time>2011-09-05T00:12:47Z</time>
      </trkpt>
      <trkpt lat="49.33538" lon="0.08806">
        <ele>30</ele>
        <time>2011-09-05T00:13:02Z</time>
      </trkpt>
      <trkpt lat="49.33553" lon="0.08863">
        <ele>28</ele>
        <time>2011-09-05T00:13:08Z</time>
      </trkpt>
      <trkpt lat="49.33573" lon="0.08898">
        <ele>27</ele>
        <time>2011-09-05T00:13:12Z</time>
      </trkpt>
      <trkpt lat="49.33597" lon="0.08919">
        <ele>26</ele>
        <time>2011-09-05T00:13:15Z</time>
      </trkpt>
      <trkpt lat="49.33651" lon="0.08952">
        <ele>21</ele>
        <time>2011-09-05T00:13:23Z</time>
      </trkpt>
      <trkpt lat="49.33669" lon="0.08981">
        <ele>19</ele>
        <time>2011-09-05T00:13:26Z</time>
      </trkpt>
      <trkpt lat="49.33689" lon="0.09029">
        <ele>16</ele>
        <time>2011-09-05T00:13:31Z</time>
      </trkpt>
      <trkpt lat="49.33723" lon="0.09082">
        <ele>10</ele>
        <time>2011-09-05T00:13:38Z</time>
      </trkpt>
      <trkpt lat="49.33735" lon="0.09113">
        <ele>8</ele>
        <time>2011-09-05T00:13:41Z</time>
      </trkpt>
      <trkpt lat="49.33742" lon="0.09147">
        <ele>6</ele>
        <time>2011-09-05T00:13:44Z</time>
      </trkpt>
      <trkpt lat="49.33749" lon="0.09204">
        <ele>5</ele>
        <time>2011-09-05T00:13:49Z</time>
      </trkpt>
      <trkpt lat="49.33747" lon="0.09226">
        <ele>5</ele>
        <time>2011-09-05T00:13:51Z</time>
      </trkpt>
      <trkpt lat="49.3373" lon="0.09234">
        <ele>5</ele>
        <time>2011-09-05T00:13:54Z</time>
      </trkpt>
      <trkpt lat="49.33593" lon="0.09196">
        <ele>4</ele>
        <time>2011-09-05T00:14:12Z</time>
      </trkpt>
      <trkpt lat="49.33528" lon="0.09163">
        <ele>5</ele>
        <time>2011-09-05T00:14:24Z</time>
      </trkpt>
      <trkpt lat="49.33478" lon="0.09126">
        <ele>6</ele>
        <time>2011-09-05T00:14:33Z</time>
      </trkpt>
      <trkpt lat="49.33405" lon="0.09063">
        <ele>5</ele>
        <time>2011-09-05T00:14:45Z</time>
      </trkpt>
      <trkpt lat="49.33339" lon="0.09037">
        <ele>5</ele>
        <time>2011-09-05T00:14:54Z</time>
      </trkpt>
      <trkpt lat="49.33305" lon="0.09016">
        <ele>6</ele>
        <time>2011-09-05T00:15:02Z</time>
      </trkpt>
      <trkpt lat="49.33325" lon="0.0895">
        <ele>8</ele>
        <time>2011-09-05T00:15:13Z</time>
      </trkpt>
      <trkpt lat="49.33334" lon="0.08907">
        <ele>9</ele>
        <time>2011-09-05T00:15:20Z</time>
      </trkpt>
      <trkpt lat="49.33334" lon="0.08893">
        <ele>10</ele>
        <time>2011-09-05T00:15:22Z</time>
      </trkpt>
      <trkpt lat="49.33311" lon="0.08807">
        <ele>12</ele>
        <time>2011-09-05T00:15:36Z</time>
      </trkpt>
      <trkpt lat="49.33301" lon="0.08785">
        <ele>13</ele>
        <time>2011-09-05T00:15:40Z</time>
      </trkpt>
      <trkpt lat="49.33284" lon="0.08769">
        <ele>14</ele>
        <time>2011-09-05T00:15:45Z</time>
      </trkpt>
      <trkpt lat="49.3322" lon="0.08767">
        <ele>12</ele>
        <time>2011-09-05T00:15:53Z</time>
      </trkpt>
      <trkpt lat="49.33177" lon="0.08757">
        <ele>12</ele>
        <time>2011-09-05T00:15:59Z</time>
      </trkpt>
      <trkpt lat="49.33139" lon="0.08734">
        <ele>10</ele>
        <time>2011-09-05T00:16:05Z</time>
      </trkpt>
      <trkpt lat="49.33112" lon="0.0871">
        <ele>9</ele>
        <time>2011-09-05T00:16:09Z</time>
      </trkpt>
      <trkpt lat="49.33092" lon="0.08679">
        <ele>9</ele>
        <time>2011-09-05T00:16:13Z</time>
      </trkpt>
      <trkpt lat="49.33068" lon="0.0863">
        <ele>9</ele>
        <time>2011-09-05T00:16:18Z</time>
      </trkpt>
      <trkpt lat="49.33068" lon="0.0863">
        <ele>9</ele>
        <time>2011-09-05T00:16:19Z</time>
      </trkpt>
      <trkpt lat="49.33027" lon="0.08527">
        <ele>7</ele>
        <time>2011-09-05T00:16:29Z</time>
      </trkpt>
      <trkpt lat="49.32997" lon="0.08549">
        <ele>6</ele>
        <time>2011-09-05T00:16:34Z</time>
      </trkpt>
      <trkpt lat="49.32982" lon="0.0855">
        <ele>6</ele>
        <time>2011-09-05T00:16:36Z</time>
      </trkpt>
      <trkpt lat="49.32981" lon="0.08561">
        <ele>5</ele>
        <time>2011-09-05T00:16:37Z</time>
      </trkpt>
      <trkpt lat="49.3296" lon="0.08559">
        <ele>5</ele>
        <time>2011-09-05T00:16:40Z</time>
      </trkpt>
      <trkpt lat="49.32947" lon="0.08567">
        <ele>5</ele>
        <time>2011-09-05T00:16:42Z</time>
      </trkpt>
      <trkpt lat="49.32885" lon="0.08586">
        <ele>4</ele>
        <time>2011-09-05T00:16:50Z</time>
      </trkpt>
      <trkpt lat="49.32848" lon="0.08591">
        <ele>4</ele>
        <time>2011-09-05T00:16:56Z</time>
      </trkpt>
      <trkpt lat="49.32767" lon="0.08585">
        <ele>5</ele>
        <time>2011-09-05T00:17:08Z</time>
      </trkpt>
      <trkpt lat="49.32753" lon="0.08574">
        <ele>5</ele>
        <time>2011-09-05T00:17:11Z</time>
      </trkpt>
      <trkpt lat="49.32723" lon="0.086">
        <ele>6</ele>
        <time>2011-09-05T00:17:18Z</time>
      </trkpt>
      <trkpt lat="49.32574" lon="0.08631">
        <ele>10</ele>
        <time>2011-09-05T00:17:47Z</time>
      </trkpt>
      <trkpt lat="49.32472" lon="0.08704">
        <ele>11</ele>
        <time>2011-09-05T00:18:04Z</time>
      </trkpt>
      <trkpt lat="49.32442" lon="0.08719">
        <ele>11</ele>
        <time>2011-09-05T00:18:09Z</time>
      </trkpt>
      <trkpt lat="49.32398" lon="0.08722">
        <ele>11</ele>
        <time>2011-09-05T00:18:15Z</time>
      </trkpt>
      <trkpt lat="49.32396" lon="0.08733">
        <ele>11</ele>
        <time>2011-09-05T00:18:16Z</time>
      </trkpt>
      <trkpt lat="49.32399" lon="0.08767">
        <ele>11</ele>
        <time>2011-09-05T00:18:20Z</time>
      </trkpt>
      <trkpt lat="49.32442" lon="0.08916">
        <ele>12</ele>
        <time>2011-09-05T00:18:35Z</time>
      </trkpt>
      <trkpt lat="49.3245" lon="0.08965">
        <ele>11</ele>
        <time>2011-09-05T00:18:40Z</time>
      </trkpt>
      <trkpt lat="49.32448" lon="0.08979">
        <ele>11</ele>
        <time>2011-09-05T00:18:41Z</time>
      </trkpt>
      <trkpt lat="49.32422" lon="0.09036">
        <ele>11</ele>
        <time>2011-09-05T00:18:47Z</time>
      </trkpt>
      <trkpt lat="49.3239" lon="0.09093">
        <ele>11</ele>
        <time>2011-09-05T00:18:53Z</time>
      </trkpt>
      <trkpt lat="49.32366" lon="0.09151">
        <ele>10</ele>
        <time>2011-09-05T00:18:59Z</time>
      </trkpt>
      <trkpt lat="49.32322" lon="0.09297">
        <ele>8</ele>
        <time>2011-09-05T00:19:13Z</time>
      </trkpt>
      <trkpt lat="49.32252" lon="0.09484">
        <ele>5</ele>
        <time>2011-09-05T00:19:32Z</time>
      </trkpt>
      <trkpt lat="49.32234" lon="0.09514">
        <ele>5</ele>
        <time>2011-09-05T00:19:37Z</time>
      </trkpt>
      <trkpt lat="49.32181" lon="0.09582">
        <ele>7</ele>
        <time>2011-09-05T00:19:50Z</time>
      </trkpt>
      <trkpt lat="49.32181" lon="0.09582">
        <ele>7</ele>
        <time>2011-09-05T00:19:51Z</time>
      </trkpt>
      <trkpt lat="49.32138" lon="0.09643">
        <ele>7</ele>
        <time>2011-09-05T00:20:01Z</time>
      </trkpt>
      <trkpt lat="49.3209" lon="0.09731">
        <ele>9</ele>
        <time>2011-09-05T00:20:13Z</time>
      </trkpt>
      <trkpt lat="49.3207" lon="0.0976">
        <ele>9</ele>
        <time>2011-09-05T00:20:17Z</time>
      </trkpt>
      <trkpt lat="49.31875" lon="0.10014">
        <ele>11</ele>
        <time>2011-09-05T00:20:56Z</time>
      </trkpt>
      <trkpt lat="49.31688" lon="0.10233">
        <ele>11</ele>
        <time>2011-09-05T00:21:27Z</time>
      </trkpt>
      <trkpt lat="49.31646" lon="0.1026">
        <ele>11</ele>
        <time>2011-09-05T00:21:35Z</time>
      </trkpt>
      <trkpt lat="49.31287" lon="0.10442">
        <ele>17</ele>
        <time>2011-09-05T00:22:38Z</time>
      </trkpt>
      <trkpt lat="49.31232" lon="0.10475">
        <ele>18</ele>
        <time>2011-09-05T00:22:49Z</time>
      </trkpt>
      <trkpt lat="49.3107" lon="0.10533">
        <ele>21</ele>
        <time>2011-09-05T00:23:18Z</time>
      </trkpt>
      <trkpt lat="49.31035" lon="0.10554">
        <ele>21</ele>
        <time>2011-09-05T00:23:25Z</time>
      </trkpt>
      <trkpt lat="49.31018" lon="0.1058">
        <ele>22</ele>
        <time>2011-09-05T00:23:30Z</time>
      </trkpt>
      <trkpt lat="49.30929" lon="0.10803">
        <ele>27</ele>
        <time>2011-09-05T00:24:04Z</time>
      </trkpt>
      <trkpt lat="49.30906" lon="0.10842">
        <ele>28</ele>
        <time>2011-09-05T00:24:11Z</time>
      </trkpt>
      <trkpt lat="49.30887" lon="0.10868">
        <ele>28</ele>
        <time>2011-09-05T00:24:16Z</time>
      </trkpt>
      <trkpt lat="49.30855" lon="0.10889">
        <ele>30</ele>
        <time>2011-09-05T00:24:23Z</time>
      </trkpt>
      <trkpt lat="49.30809" lon="0.10907">
        <ele>30</ele>
        <time>2011-09-05T00:24:31Z</time>
      </trkpt>
      <trkpt lat="49.30776" lon="0.10939">
        <ele>30</ele>
        <time>2011-09-05T00:24:37Z</time>
      </trkpt>
      <trkpt lat="49.30752" lon="0.10975">
        <ele>31</ele>
        <time>2011-09-05T00:24:42Z</time>
      </trkpt>
      <trkpt lat="49.30623" lon="0.11244">
        <ele>32</ele>
        <time>2011-09-05T00:25:13Z</time>
      </trkpt>
      <trkpt lat="49.30558" lon="0.11307">
        <ele>32</ele>
        <time>2011-09-05T00:25:24Z</time>
      </trkpt>
      <trkpt lat="49.30541" lon="0.11337">
        <ele>32</ele>
        <time>2011-09-05T00:25:27Z</time>
      </trkpt>
      <trkpt lat="49.30488" lon="0.11527">
        <ele>28</ele>
        <time>2011-09-05T00:25:45Z</time>
      </trkpt>
      <trkpt lat="49.30473" lon="0.11569">
        <ele>26</ele>
        <time>2011-09-05T00:25:49Z</time>
      </trkpt>
      <trkpt lat="49.30414" lon="0.11675">
        <ele>24</ele>
        <time>2011-09-05T00:26:01Z</time>
      </trkpt>
      <trkpt lat="49.30357" lon="0.11793">
        <ele>21</ele>
        <time>2011-09-05T00:26:14Z</time>
      </trkpt>
      <trkpt lat="49.30326" lon="0.11878">
        <ele>20</ele>
        <time>2011-09-05T00:26:23Z</time>
      </trkpt>
      <trkpt lat="49.30251" lon="0.12038">
        <ele>19</ele>
        <time>2011-09-05T00:26:40Z</time>
      </trkpt>
      <trkpt lat="49.30174" lon="0.12253">
        <ele>15</ele>
        <time>2011-09-05T00:27:01Z</time>
      </trkpt>
      <trkpt lat="49.30151" lon="0.12291">
        <ele>14</ele>
        <time>2011-09-05T00:27:06Z</time>
      </trkpt>
      <trkpt lat="49.30082" lon="0.12364">
        <ele>14</ele>
        <time>2011-09-05T00:27:17Z</time>
      </trkpt>
      <trkpt lat="49.30076" lon="0.12385">
        <ele>13</ele>
        <time>2011-09-05T00:27:19Z</time>
      </trkpt>
      <trkpt lat="49.30057" lon="0.12513">
        <ele>13</ele>
        <time>2011-09-05T00:27:30Z</time>
      </trkpt>
      <trkpt lat="49.30039" lon="0.1258">
        <ele>12</ele>
        <time>2011-09-05T00:27:37Z</time>
      </trkpt>
      <trkpt lat="49.30012" lon="0.12634">
        <ele>12</ele>
        <time>2011-09-05T00:27:43Z</time>
      </trkpt>
      <trkpt lat="49.29972" lon="0.12675">
        <ele>12</ele>
        <time>2011-09-05T00:27:49Z</time>
      </trkpt>
      <trkpt lat="49.29972" lon="0.12675">
        <ele>12</ele>
        <time>2011-09-05T00:27:50Z</time>
      </trkpt>
      <trkpt lat="49.29933" lon="0.12705">
        <ele>10</ele>
        <time>2011-09-05T00:27:56Z</time>
      </trkpt>
      <trkpt lat="49.29913" lon="0.12714">
        <ele>10</ele>
        <time>2011-09-05T00:27:59Z</time>
      </trkpt>
      <trkpt lat="49.29899" lon="0.12713">
        <ele>10</ele>
        <time>2011-09-05T00:28:00Z</time>
      </trkpt>
      <trkpt lat="49.29855" lon="0.1268">
        <ele>9</ele>
        <time>2011-09-05T00:28:07Z</time>
      </trkpt>
      <trkpt lat="49.29838" lon="0.12677">
        <ele>9</ele>
        <time>2011-09-05T00:28:10Z</time>
      </trkpt>
      <trkpt lat="49.298" lon="0.12686">
        <ele>9</ele>
        <time>2011-09-05T00:28:15Z</time>
      </trkpt>
      <trkpt lat="49.29718" lon="0.12684">
        <ele>10</ele>
        <time>2011-09-05T00:28:28Z</time>
      </trkpt>
      <trkpt lat="49.29671" lon="0.12692">
        <ele>9</ele>
        <time>2011-09-05T00:28:34Z</time>
      </trkpt>
      <trkpt lat="49.29685" lon="0.12723">
        <ele>9</ele>
        <time>2011-09-05T00:28:37Z</time>
      </trkpt>
      <trkpt lat="49.29708" lon="0.12834">
        <ele>9</ele>
        <time>2011-09-05T00:28:47Z</time>
      </trkpt>
      <trkpt lat="49.29739" lon="0.13137">
        <ele>7</ele>
        <time>2011-09-05T00:29:14Z</time>
      </trkpt>
      <trkpt lat="49.29753" lon="0.13222">
        <ele>5</ele>
        <time>2011-09-05T00:29:22Z</time>
      </trkpt>
      <trkpt lat="49.29764" lon="0.1326">
        <ele>5</ele>
        <time>2011-09-05T00:29:25Z</time>
      </trkpt>
      <trkpt lat="49.2981" lon="0.1336">
        <ele>4</ele>
        <time>2011-09-05T00:29:36Z</time>
      </trkpt>
      <trkpt lat="49.29846" lon="0.135">
        <ele>4</ele>
        <time>2011-09-05T00:29:49Z</time>
      </trkpt>
      <trkpt lat="49.29861" lon="0.13541">
        <ele>4</ele>
        <time>2011-09-05T00:29:53Z</time>
      </trkpt>
      <trkpt lat="49.29791" lon="0.13601">
        <ele>4</ele>
        <time>2011-09-05T00:30:04Z</time>
      </trkpt>
      <trkpt lat="49.2974" lon="0.13655">
        <ele>4</ele>
        <time>2011-09-05T00:30:12Z</time>
      </trkpt>
      <trkpt lat="49.29722" lon="0.13668">
        <ele>3</ele>
        <time>2011-09-05T00:30:15Z</time>
      </trkpt>
      <trkpt lat="49.29696" lon="0.13672">
        <ele>3</ele>
        <time>2011-09-05T00:30:18Z</time>
      </trkpt>
      <trkpt lat="49.29639" lon="0.1365">
        <ele>3</ele>
        <time>2011-09-05T00:30:26Z</time>
      </trkpt>
      <trkpt lat="49.29611" lon="0.13658">
        <ele>3</ele>
        <time>2011-09-05T00:30:30Z</time>
      </trkpt>
      <trkpt lat="49.29588" lon="0.13679">
        <ele>3</ele>
        <time>2011-09-05T00:30:34Z</time>
      </trkpt>
      <trkpt lat="49.29558" lon="0.13721">
        <ele>3</ele>
        <time>2011-09-05T00:30:39Z</time>
      </trkpt>
      <trkpt lat="49.29533" lon="0.13769">
        <ele>3</ele>
        <time>2011-09-05T00:30:44Z</time>
      </trkpt>
      <trkpt lat="49.29521" lon="0.13807">
        <ele>3</ele>
        <time>2011-09-05T00:30:48Z</time>
      </trkpt>
      <trkpt lat="49.2951" lon="0.13875">
        <ele>3</ele>
        <time>2011-09-05T00:30:54Z</time>
      </trkpt>
      <trkpt lat="49.29501" lon="0.13907">
        <ele>3</ele>
        <time>2011-09-05T00:30:58Z</time>
      </trkpt>
      <trkpt lat="49.29484" lon="0.13932">
        <ele>3</ele>
        <time>2011-09-05T00:31:02Z</time>
      </trkpt>
      <trkpt lat="49.29463" lon="0.13949">
        <ele>4</ele>
        <time>2011-09-05T00:31:06Z</time>
      </trkpt>
      <trkpt lat="49.29412" lon="0.13971">
        <ele>5</ele>
        <time>2011-09-05T00:31:16Z</time>
      </trkpt>
      <trkpt lat="49.29381" lon="0.13972">
        <ele>5</ele>
        <time>2011-09-05T00:31:20Z</time>
      </trkpt>
      <trkpt lat="49.29356" lon="0.13963">
        <ele>5</ele>
        <time>2011-09-05T00:31:24Z</time>
      </trkpt>
      <trkpt lat="49.29298" lon="0.13926">
        <ele>6</ele>
        <time>2011-09-05T00:31:34Z</time>
      </trkpt>
      <trkpt lat="49.29265" lon="0.13913">
        <ele>7</ele>
        <time>2011-09-05T00:31:41Z</time>
      </trkpt>
      <trkpt lat="49.29265" lon="0.13913">
        <ele>7</ele>
        <time>2011-09-05T00:31:42Z</time>
      </trkpt>
      <trkpt lat="49.29238" lon="0.1391">
        <ele>7</ele>
        <time>2011-09-05T00:31:48Z</time>
      </trkpt>
      <trkpt lat="49.29204" lon="0.13918">
        <ele>8</ele>
        <time>2011-09-05T00:31:55Z</time>
      </trkpt>
      <trkpt lat="49.29151" lon="0.1397">
        <ele>11</ele>
        <time>2011-09-05T00:32:08Z</time>
      </trkpt>
      <trkpt lat="49.291" lon="0.14042">
        <ele>13</ele>
        <time>2011-09-05T00:32:24Z</time>
      </trkpt>
      <trkpt lat="49.29061" lon="0.14086">
        <ele>16</ele>
        <time>2011-09-05T00:32:36Z</time>
      </trkpt>
      <trkpt lat="49.29029" lon="0.14099">
        <ele>17</ele>
        <time>2011-09-05T00:32:44Z</time>
      </trkpt>
      <trkpt lat="49.28994" lon="0.14106">
        <ele>18</ele>
        <time>2011-09-05T00:32:52Z</time>
      </trkpt>
      <trkpt lat="49.28971" lon="0.14122">
        <ele>20</ele>
        <time>2011-09-05T00:32:58Z</time>
      </trkpt>
      <trkpt lat="49.28926" lon="0.14232">
        <ele>21</ele>
        <time>2011-09-05T00:33:14Z</time>
      </trkpt>
      <trkpt lat="49.28894" lon="0.14277">
        <ele>23</ele>
        <time>2011-09-05T00:33:22Z</time>
      </trkpt>
      <trkpt lat="49.28867" lon="0.14299">
        <ele>23</ele>
        <time>2011-09-05T00:33:27Z</time>
      </trkpt>
      <trkpt lat="49.28815" lon="0.14315">
        <ele>23</ele>
        <time>2011-09-05T00:33:35Z</time>
      </trkpt>
      <trkpt lat="49.28816" lon="0.14179">
        <ele>24</ele>
        <time>2011-09-05T00:33:48Z</time>
      </trkpt>
      <trkpt lat="49.28813" lon="0.14089">
        <ele>23</ele>
        <time>2011-09-05T00:33:55Z</time>
      </trkpt>
      <trkpt lat="49.28755" lon="0.138">
        <ele>20</ele>
        <time>2011-09-05T00:34:22Z</time>
      </trkpt>
      <trkpt lat="49.28755" lon="0.138">
        <ele>20</ele>
        <time>2011-09-05T00:34:23Z</time>
      </trkpt>
      <trkpt lat="49.28745" lon="0.13755">
        <ele>20</ele>
        <time>2011-09-05T00:34:29Z</time>
      </trkpt>
      <trkpt lat="49.28732" lon="0.13724">
        <ele>21</ele>
        <time>2011-09-05T00:34:34Z</time>
      </trkpt>
      <trkpt lat="49.28643" lon="0.13611">
        <ele>25</ele>
        <time>2011-09-05T00:34:58Z</time>
      </trkpt>
      <trkpt lat="49.28621" lon="0.13561">
        <ele>24</ele>
        <time>2011-09-05T00:35:03Z</time>
      </trkpt>
      <trkpt lat="49.286" lon="0.13496">
        <ele>24</ele>
        <time>2011-09-05T00:35:09Z</time>
      </trkpt>
      <trkpt lat="49.28586" lon="0.13427">
        <ele>24</ele>
        <time>2011-09-05T00:35:15Z</time>
      </trkpt>
      <trkpt lat="49.28581" lon="0.13373">
        <ele>24</ele>
        <time>2011-09-05T00:35:22Z</time>
      </trkpt>
      <trkpt lat="49.28593" lon="0.13331">
        <ele>25</ele>
        <time>2011-09-05T00:35:27Z</time>
      </trkpt>
      <trkpt lat="49.28605" lon="0.13306">
        <ele>25</ele>
        <time>2011-09-05T00:35:30Z</time>
      </trkpt>
      <trkpt lat="49.28672" lon="0.13188">
        <ele>27</ele>
        <time>2011-09-05T00:35:48Z</time>
      </trkpt>
      <trkpt lat="49.28788" lon="0.12998">
        <ele>18</ele>
        <time>2011-09-05T00:36:10Z</time>
      </trkpt>
      <trkpt lat="49.28855" lon="0.12916">
        <ele>18</ele>
        <time>2011-09-05T00:36:24Z</time>
      </trkpt>
      <trkpt lat="49.28936" lon="0.12803">
        <ele>20</ele>
        <time>2011-09-05T00:36:41Z</time>
      </trkpt>
      <trkpt lat="49.28944" lon="0.12818">
        <ele>20</ele>
        <time>2011-09-05T00:36:43Z</time>
      </trkpt>
      <trkpt lat="49.28944" lon="0.12818">
        <ele>20</ele>
        <time>2011-09-05T00:36:44Z</time>
      </trkpt>
      <trkpt lat="49.28959" lon="0.12842">
        <ele>19</ele>
        <time>2011-09-05T00:36:47Z</time>
      </trkpt>
      <trkpt lat="49.28971" lon="0.12843">
        <ele>18</ele>
        <time>2011-09-05T00:36:49Z</time>
      </trkpt>
      <trkpt lat="49.28984" lon="0.12816">
        <ele>18</ele>
        <time>2011-09-05T00:36:51Z</time>
      </trkpt>
      <trkpt lat="49.2896" lon="0.12764">
        <ele>16</ele>
        <time>2011-09-05T00:36:57Z</time>
      </trkpt>
      <trkpt lat="49.29128" lon="0.1268">
        <ele>10</ele>
        <time>2011-09-05T00:37:21Z</time>
      </trkpt>
      <trkpt lat="49.29156" lon="0.12657">
        <ele>10</ele>
        <time>2011-09-05T00:37:25Z</time>
      </trkpt>
      <trkpt lat="49.29183" lon="0.12625">
        <ele>9</ele>
        <time>2011-09-05T00:37:29Z</time>
      </trkpt>
      <trkpt lat="49.29193" lon="0.12606">
        <ele>8</ele>
        <time>2011-09-05T00:37:32Z</time>
      </trkpt>
      <trkpt lat="49.29202" lon="0.1257">
        <ele>8</ele>
        <time>2011-09-05T00:37:35Z</time>
      </trkpt>
      <trkpt lat="49.29184" lon="0.12558">
        <ele>8</ele>
        <time>2011-09-05T00:37:38Z</time>
      </trkpt>
      <trkpt lat="49.29173" lon="0.1254">
        <ele>8</ele>
        <time>2011-09-05T00:37:41Z</time>
      </trkpt>
      <trkpt lat="49.29141" lon="0.12369">
        <ele>10</ele>
        <time>2011-09-05T00:38:00Z</time>
      </trkpt>
      <trkpt lat="49.29088" lon="0.12172">
        <ele>12</ele>
        <time>2011-09-05T00:38:23Z</time>
      </trkpt>
      <trkpt lat="49.28975" lon="0.11949">
        <ele>15</ele>
        <time>2011-09-05T00:38:55Z</time>
      </trkpt>
      <trkpt lat="49.2887" lon="0.11789">
        <ele>16</ele>
        <time>2011-09-05T00:39:17Z</time>
      </trkpt>
      <trkpt lat="49.28833" lon="0.11725">
        <ele>16</ele>
        <time>2011-09-05T00:39:26Z</time>
      </trkpt>
      <trkpt lat="49.28791" lon="0.11612">
        <ele>17</ele>
        <time>2011-09-05T00:39:38Z</time>
      </trkpt>
      <trkpt lat="49.28771" lon="0.11582">
        <ele>17</ele>
        <time>2011-09-05T00:39:44Z</time>
      </trkpt>
      <trkpt lat="49.28751" lon="0.11568">
        <ele>18</ele>
        <time>2011-09-05T00:39:49Z</time>
      </trkpt>
      <trkpt lat="49.28696" lon="0.11549">
        <ele>20</ele>
        <time>2011-09-05T00:40:00Z</time>
      </trkpt>
      <trkpt lat="49.2862" lon="0.11507">
        <ele>21</ele>
        <time>2011-09-05T00:40:14Z</time>
      </trkpt>
      <trkpt lat="49.28581" lon="0.11491">
        <ele>22</ele>
        <time>2011-09-05T00:40:21Z</time>
      </trkpt>
      <trkpt lat="49.28447" lon="0.11454">
        <ele>26</ele>
        <time>2011-09-05T00:40:49Z</time>
      </trkpt>
      <trkpt lat="49.28331" lon="0.1141">
        <ele>28</ele>
        <time>2011-09-05T00:41:09Z</time>
      </trkpt>
      <trkpt lat="49.28191" lon="0.11377">
        <ele>41</ele>
        <time>2011-09-05T00:42:00Z</time>
      </trkpt>
      <trkpt lat="49.28191" lon="0.11377">
        <ele>41</ele>
        <time>2011-09-05T00:42:01Z</time>
      </trkpt>
      <trkpt lat="49.28143" lon="0.11376">
        <ele>45</ele>
        <time>2011-09-05T00:42:18Z</time>
      </trkpt>
      <trkpt lat="49.28023" lon="0.11411">
        <ele>57</ele>
        <time>2011-09-05T00:43:02Z</time>
      </trkpt>
      <trkpt lat="49.27989" lon="0.11413">
        <ele>59</ele>
        <time>2011-09-05T00:43:13Z</time>
      </trkpt>
      <trkpt lat="49.27966" lon="0.11402">
        <ele>61</ele>
        <time>2011-09-05T00:43:21Z</time>
      </trkpt>
      <trkpt lat="49.27941" lon="0.11372">
        <ele>64</ele>
        <time>2011-09-05T00:43:32Z</time>
      </trkpt>
      <trkpt lat="49.27926" lon="0.11273">
        <ele>70</ele>
        <time>2011-09-05T00:43:54Z</time>
      </trkpt>
      <trkpt lat="49.27915" lon="0.11239">
        <ele>72</ele>
        <time>2011-09-05T00:44:03Z</time>
      </trkpt>
      <trkpt lat="49.279" lon="0.11225">
        <ele>74</ele>
        <time>2011-09-05T00:44:10Z</time>
      </trkpt>
      <trkpt lat="49.27838" lon="0.11191">
        <ele>81</ele>
        <time>2011-09-05T00:44:35Z</time>
      </trkpt>
      <trkpt lat="49.27827" lon="0.1118">
        <ele>81</ele>
        <time>2011-09-05T00:44:38Z</time>
      </trkpt>
      <trkpt lat="49.27817" lon="0.1116">
        <ele>82</ele>
        <time>2011-09-05T00:44:43Z</time>
      </trkpt>
      <trkpt lat="49.27818" lon="0.11128">
        <ele>83</ele>
        <time>2011-09-05T00:44:48Z</time>
      </trkpt>
      <trkpt lat="49.27826" lon="0.11082">
        <ele>85</ele>
        <time>2011-09-05T00:44:57Z</time>
      </trkpt>
      <trkpt lat="49.27852" lon="0.10971">
        <ele>90</ele>
        <time>2011-09-05T00:45:17Z</time>
      </trkpt>
      <trkpt lat="49.27799" lon="0.10931">
        <ele>88</ele>
        <time>2011-09-05T00:45:25Z</time>
      </trkpt>
      <trkpt lat="49.27767" lon="0.10914">
        <ele>87</ele>
        <time>2011-09-05T00:45:30Z</time>
      </trkpt>
      <trkpt lat="49.27663" lon="0.10889">
        <ele>89</ele>
        <time>2011-09-05T00:45:49Z</time>
      </trkpt>
      <trkpt lat="49.2763" lon="0.10822">
        <ele>93</ele>
        <time>2011-09-05T00:46:06Z</time>
      </trkpt>
      <trkpt lat="49.27605" lon="0.10785">
        <ele>96</ele>
        <time>2011-09-05T00:46:17Z</time>
      </trkpt>
      <trkpt lat="49.27472" lon="0.1067">
        <ele>108</ele>
        <time>2011-09-05T00:47:07Z</time>
      </trkpt>
      <trkpt lat="49.27435" lon="0.10628">
        <ele>109</ele>
        <time>2011-09-05T00:47:17Z</time>
      </trkpt>
      <trkpt lat="49.27408" lon="0.10583">
        <ele>111</ele>
        <time>2011-09-05T00:47:26Z</time>
      </trkpt>
      <trkpt lat="49.27363" lon="0.10447">
        <ele>115</ele>
        <time>2011-09-05T00:47:48Z</time>
      </trkpt>
      <trkpt lat="49.27345" lon="0.10415">
        <ele>116</ele>
        <time>2011-09-05T00:47:56Z</time>
      </trkpt>
      <trkpt lat="49.27331" lon="0.10402">
        <ele>118</ele>
        <time>2011-09-05T00:48:01Z</time>
      </trkpt>
      <trkpt lat="49.27261" lon="0.1038">
        <ele>123</ele>
        <time>2011-09-05T00:48:23Z</time>
      </trkpt>
      <trkpt lat="49.27237" lon="0.10364">
        <ele>123</ele>
        <time>2011-09-05T00:48:28Z</time>
      </trkpt>
      <trkpt lat="49.27217" lon="0.10341">
        <ele>124</ele>
        <time>2011-09-05T00:48:34Z</time>
      </trkpt>
      <trkpt lat="49.27191" lon="0.10292">
        <ele>126</ele>
        <time>2011-09-05T00:48:42Z</time>
      </trkpt>
      <trkpt lat="49.27191" lon="0.10292">
        <ele>126</ele>
        <time>2011-09-05T00:48:43Z</time>
      </trkpt>
      <trkpt lat="49.2714" lon="0.10199">
        <ele>127</ele>
        <time>2011-09-05T00:48:57Z</time>
      </trkpt>
      <trkpt lat="49.27111" lon="0.10165">
        <ele>128</ele>
        <time>2011-09-05T00:49:04Z</time>
      </trkpt>
      <trkpt lat="49.27044" lon="0.10119">
        <ele>128</ele>
        <time>2011-09-05T00:49:13Z</time>
      </trkpt>
      <trkpt lat="49.26986" lon="0.10025">
        <ele>128</ele>
        <time>2011-09-05T00:49:25Z</time>
      </trkpt>
      <trkpt lat="49.26944" lon="0.09966">
        <ele>128</ele>
        <time>2011-09-05T00:49:34Z</time>
      </trkpt>
      <trkpt lat="49.26885" lon="0.09883">
        <ele>130</ele>
        <time>2011-09-05T00:49:48Z</time>
      </trkpt>
      <trkpt lat="49.26834" lon="0.09824">
        <ele>130</ele>
        <time>2011-09-05T00:49:56Z</time>
      </trkpt>
      <trkpt lat="49.26814" lon="0.09806">
        <ele>130</ele>
        <time>2011-09-05T00:49:59Z</time>
      </trkpt>
      <trkpt lat="49.26748" lon="0.09769">
        <ele>130</ele>
        <time>2011-09-05T00:50:09Z</time>
      </trkpt>
      <trkpt lat="49.26657" lon="0.09706">
        <ele>130</ele>
        <time>2011-09-05T00:50:22Z</time>
      </trkpt>
      <trkpt lat="49.26587" lon="0.09651">
        <ele>130</ele>
        <time>2011-09-05T00:50:34Z</time>
      </trkpt>
      <trkpt lat="49.26564" lon="0.09623">
        <ele>131</ele>
        <time>2011-09-05T00:50:39Z</time>
      </trkpt>
      <trkpt lat="49.26548" lon="0.09597">
        <ele>131</ele>
        <time>2011-09-05T00:50:43Z</time>
      </trkpt>
      <trkpt lat="49.26472" lon="0.09427">
        <ele>133</ele>
        <time>2011-09-05T00:51:05Z</time>
      </trkpt>
      <trkpt lat="49.26415" lon="0.09333">
        <ele>132</ele>
        <time>2011-09-05T00:51:16Z</time>
      </trkpt>
      <trkpt lat="49.26365" lon="0.09192">
        <ele>131</ele>
        <time>2011-09-05T00:51:30Z</time>
      </trkpt>
      <trkpt lat="49.26365" lon="0.09192">
        <ele>131</ele>
        <time>2011-09-05T00:51:31Z</time>
      </trkpt>
      <trkpt lat="49.2632" lon="0.09091">
        <ele>130</ele>
        <time>2011-09-05T00:51:42Z</time>
      </trkpt>
      <trkpt lat="49.263" lon="0.09033">
        <ele>130</ele>
        <time>2011-09-05T00:51:47Z</time>
      </trkpt>
      <trkpt lat="49.26288" lon="0.09013">
        <ele>129</ele>
        <time>2011-09-05T00:51:50Z</time>
      </trkpt>
      <trkpt lat="49.26269" lon="0.08994">
        <ele>129</ele>
        <time>2011-09-05T00:51:53Z</time>
      </trkpt>
      <trkpt lat="49.26282" lon="0.08971">
        <ele>128</ele>
        <time>2011-09-05T00:51:55Z</time>
      </trkpt>
      <trkpt lat="49.26371" lon="0.08862">
        <ele>126</ele>
        <time>2011-09-05T00:52:11Z</time>
      </trkpt>
      <trkpt lat="49.26397" lon="0.0884">
        <ele>125</ele>
        <time>2011-09-05T00:52:15Z</time>
      </trkpt>
      <trkpt lat="49.26486" lon="0.08788">
        <ele>124</ele>
        <time>2011-09-05T00:52:27Z</time>
      </trkpt>
      <trkpt lat="49.26629" lon="0.08649">
        <ele>122</ele>
        <time>2011-09-05T00:52:50Z</time>
      </trkpt>
      <trkpt lat="49.26582" lon="0.08577">
        <ele>118</ele>
        <time>2011-09-05T00:52:59Z</time>
      </trkpt>
      <trkpt lat="49.26563" lon="0.08525">
        <ele>116</ele>
        <time>2011-09-05T00:53:04Z</time>
      </trkpt>
      <trkpt lat="49.26563" lon="0.08525">
        <ele>116</ele>
        <time>2011-09-05T00:53:05Z</time>
      </trkpt>
      <trkpt lat="49.26544" lon="0.08471">
        <ele>117</ele>
        <time>2011-09-05T00:53:14Z</time>
      </trkpt>
      <trkpt lat="49.26524" lon="0.08438">
        <ele>118</ele>
        <time>2011-09-05T00:53:20Z</time>
      </trkpt>
      <trkpt lat="49.26462" lon="0.08366">
        <ele>121</ele>
        <time>2011-09-05T00:53:37Z</time>
      </trkpt>
      <trkpt lat="49.26446" lon="0.08341">
        <ele>121</ele>
        <time>2011-09-05T00:53:42Z</time>
      </trkpt>
      <trkpt lat="49.26436" lon="0.08311">
        <ele>122</ele>
        <time>2011-09-05T00:53:46Z</time>
      </trkpt>
      <trkpt lat="49.26421" lon="0.08198">
        <ele>125</ele>
        <time>2011-09-05T00:54:02Z</time>
      </trkpt>
      <trkpt lat="49.26395" lon="0.08053">
        <ele>127</ele>
        <time>2011-09-05T00:54:20Z</time>
      </trkpt>
      <trkpt lat="49.26395" lon="0.08053">
        <ele>127</ele>
        <time>2011-09-05T00:54:21Z</time>
      </trkpt>
      <trkpt lat="49.2638" lon="0.07965">
        <ele>125</ele>
        <time>2011-09-05T00:54:29Z</time>
      </trkpt>
      <trkpt lat="49.2636" lon="0.07776">
        <ele>123</ele>
        <time>2011-09-05T00:54:46Z</time>
      </trkpt>
      <trkpt lat="49.26543" lon="0.07763">
        <ele>122</ele>
        <time>2011-09-05T00:55:10Z</time>
      </trkpt>
      <trkpt lat="49.26596" lon="0.07778">
        <ele>121</ele>
        <time>2011-09-05T00:55:18Z</time>
      </trkpt>
      <trkpt lat="49.2667" lon="0.07782">
        <ele>121</ele>
        <time>2011-09-05T00:55:27Z</time>
      </trkpt>
      <trkpt lat="49.26913" lon="0.07835">
        <ele>114</ele>
        <time>2011-09-05T00:56:00Z</time>
      </trkpt>
      <trkpt lat="49.26936" lon="0.07836">
        <ele>113</ele>
        <time>2011-09-05T00:56:03Z</time>
      </trkpt>
      <trkpt lat="49.26966" lon="0.07825">
        <ele>113</ele>
        <time>2011-09-05T00:56:07Z</time>
      </trkpt>
      <trkpt lat="49.27147" lon="0.07704">
        <ele>112</ele>
        <time>2011-09-05T00:56:34Z</time>
      </trkpt>
      <trkpt lat="49.27199" lon="0.07688">
        <ele>112</ele>
        <time>2011-09-05T00:56:42Z</time>
      </trkpt>
      <trkpt lat="49.2738" lon="0.07688">
        <ele>114</ele>
        <time>2011-09-05T00:57:10Z</time>
      </trkpt>
      <trkpt lat="49.27497" lon="0.07667">
        <ele>112</ele>
        <time>2011-09-05T00:57:26Z</time>
      </trkpt>
      <trkpt lat="49.27596" lon="0.07668">
        <ele>108</ele>
        <time>2011-09-05T00:57:39Z</time>
      </trkpt>
      <trkpt lat="49.27708" lon="0.07709">
        <ele>100</ele>
        <time>2011-09-05T00:57:54Z</time>
      </trkpt>
      <trkpt lat="49.27755" lon="0.07716">
        <ele>95</ele>
        <time>2011-09-05T00:58:01Z</time>
      </trkpt>
      <trkpt lat="49.27801" lon="0.07706">
        <ele>92</ele>
        <time>2011-09-05T00:58:07Z</time>
      </trkpt>
      <trkpt lat="49.27923" lon="0.07659">
        <ele>78</ele>
        <time>2011-09-05T00:58:24Z</time>
      </trkpt>
      <trkpt lat="49.28008" lon="0.07645">
        <ele>69</ele>
        <time>2011-09-05T00:58:35Z</time>
      </trkpt>
      <trkpt lat="49.28072" lon="0.07642">
        <ele>63</ele>
        <time>2011-09-05T00:58:44Z</time>
      </trkpt>
      <trkpt lat="49.28182" lon="0.07674">
        <ele>58</ele>
        <time>2011-09-05T00:58:58Z</time>
      </trkpt>
      <trkpt lat="49.28241" lon="0.07665">
        <ele>56</ele>
        <time>2011-09-05T00:59:06Z</time>
      </trkpt>
      <trkpt lat="49.28272" lon="0.07669">
        <ele>56</ele>
        <time>2011-09-05T00:59:11Z</time>
      </trkpt>
      <trkpt lat="49.28301" lon="0.07687">
        <ele>55</ele>
        <time>2011-09-05T00:59:15Z</time>
      </trkpt>
      <trkpt lat="49.28347" lon="0.07727">
        <ele>53</ele>
        <time>2011-09-05T00:59:22Z</time>
      </trkpt>
      <trkpt lat="49.28385" lon="0.0774">
        <ele>53</ele>
        <time>2011-09-05T00:59:27Z</time>
      </trkpt>
      <trkpt lat="49.28505" lon="0.0773">
        <ele>45</ele>
        <time>2011-09-05T00:59:43Z</time>
      </trkpt>
      <trkpt lat="49.28534" lon="0.07734">
        <ele>44</ele>
        <time>2011-09-05T00:59:47Z</time>
      </trkpt>
      <trkpt lat="49.28592" lon="0.07759">
        <ele>43</ele>
        <time>2011-09-05T00:59:55Z</time>
      </trkpt>
      <trkpt lat="49.28676" lon="0.07784">
        <ele>43</ele>
        <time>2011-09-05T01:00:06Z</time>
      </trkpt>
      <trkpt lat="49.28737" lon="0.07826">
        <ele>43</ele>
        <time>2011-09-05T01:00:16Z</time>
      </trkpt>
      <trkpt lat="49.28822" lon="0.07864">
        <ele>44</ele>
        <time>2011-09-05T01:00:30Z</time>
      </trkpt>
      <trkpt lat="49.28852" lon="0.07864">
        <ele>45</ele>
        <time>2011-09-05T01:00:37Z</time>
      </trkpt>
      <trkpt lat="49.28905" lon="0.0785">
        <ele>47</ele>
        <time>2011-09-05T01:00:50Z</time>
      </trkpt>
      <trkpt lat="49.28956" lon="0.07859">
        <ele>50</ele>
        <time>2011-09-05T01:01:02Z</time>
      </trkpt>
      <trkpt lat="49.28976" lon="0.07867">
        <ele>50</ele>
        <time>2011-09-05T01:01:06Z</time>
      </trkpt>
      <trkpt lat="49.29009" lon="0.07893">
        <ele>51</ele>
        <time>2011-09-05T01:01:13Z</time>
      </trkpt>
      <trkpt lat="49.29161" lon="0.07988">
        <ele>56</ele>
        <time>2011-09-05T01:01:46Z</time>
      </trkpt>
      <trkpt lat="49.29528" lon="0.0811">
        <ele>61</ele>
        <time>2011-09-05T01:02:48Z</time>
      </trkpt>
      <trkpt lat="49.29627" lon="0.08129">
        <ele>63</ele>
        <time>2011-09-05T01:03:06Z</time>
      </trkpt>
      <trkpt lat="49.29681" lon="0.08125">
        <ele>63</ele>
        <time>2011-09-05T01:03:15Z</time>
      </trkpt>
      <trkpt lat="49.29762" lon="0.0811">
        <ele>64</ele>
        <time>2011-09-05T01:03:27Z</time>
      </trkpt>
      <trkpt lat="49.29889" lon="0.08141">
        <ele>63</ele>
        <time>2011-09-05T01:03:44Z</time>
      </trkpt>
      <trkpt lat="49.29952" lon="0.08172">
        <ele>63</ele>
        <time>2011-09-05T01:03:54Z</time>
      </trkpt>
      <trkpt lat="49.30073" lon="0.08188">
        <ele>64</ele>
        <time>2011-09-05T01:04:12Z</time>
      </trkpt>
      <trkpt lat="49.30073" lon="0.08188">
        <ele>64</ele>
        <time>2011-09-05T01:04:13Z</time>
      </trkpt>
      <trkpt lat="49.30223" lon="0.08204">
        <ele>61</ele>
        <time>2011-09-05T01:04:33Z</time>
      </trkpt>
      <trkpt lat="49.30273" lon="0.08202">
        <ele>60</ele>
        <time>2011-09-05T01:04:39Z</time>
      </trkpt>
      <trkpt lat="49.30329" lon="0.0819">
        <ele>60</ele>
        <time>2011-09-05T01:04:47Z</time>
      </trkpt>
      <trkpt lat="49.30364" lon="0.08189">
        <ele>58</ele>
        <time>2011-09-05T01:04:52Z</time>
      </trkpt>
      <trkpt lat="49.3061" lon="0.08213">
        <ele>51</ele>
        <time>2011-09-05T01:05:24Z</time>
      </trkpt>
      <trkpt lat="49.30675" lon="0.0824">
        <ele>47</ele>
        <time>2011-09-05T01:05:33Z</time>
      </trkpt>
      <trkpt lat="49.30748" lon="0.08283">
        <ele>44</ele>
        <time>2011-09-05T01:05:44Z</time>
      </trkpt>
      <trkpt lat="49.30981" lon="0.08378">
        <ele>32</ele>
        <time>2011-09-05T01:06:16Z</time>
      </trkpt>
      <trkpt lat="49.31029" lon="0.08391">
        <ele>29</ele>
        <time>2011-09-05T01:06:23Z</time>
      </trkpt>
      <trkpt lat="49.31099" lon="0.08394">
        <ele>27</ele>
        <time>2011-09-05T01:06:32Z</time>
      </trkpt>
      <trkpt lat="49.31253" lon="0.08099">
        <ele>26</ele>
        <time>2011-09-05T01:07:05Z</time>
      </trkpt>
      <trkpt lat="49.31338" lon="0.07869">
        <ele>25</ele>
        <time>2011-09-05T01:07:28Z</time>
      </trkpt>
      <trkpt lat="49.31397" lon="0.0773">
        <ele>24</ele>
        <time>2011-09-05T01:07:42Z</time>
      </trkpt>
      <trkpt lat="49.31422" lon="0.07683">
        <ele>23</ele>
        <time>2011-09-05T01:07:48Z</time>
      </trkpt>
      <trkpt lat="49.31467" lon="0.07626">
        <ele>23</ele>
        <time>2011-09-05T01:07:55Z</time>
      </trkpt>
      <trkpt lat="49.31502" lon="0.07572">
        <ele>22</ele>
        <time>2011-09-05T01:08:02Z</time>
      </trkpt>
      <trkpt lat="49.31674" lon="0.07377">
        <ele>20</ele>
        <time>2011-09-05T01:08:31Z</time>
      </trkpt>
      <trkpt lat="49.31725" lon="0.07345">
        <ele>20</ele>
        <time>2011-09-05T01:08:38Z</time>
      </trkpt>
      <trkpt lat="49.31791" lon="0.07279">
        <ele>20</ele>
        <time>2011-09-05T01:08:48Z</time>
      </trkpt>
      <trkpt lat="49.31883" lon="0.07201">
        <ele>18</ele>
        <time>2011-09-05T01:09:03Z</time>
      </trkpt>
      <trkpt lat="49.31937" lon="0.07147">
        <ele>17</ele>
        <time>2011-09-05T01:09:11Z</time>
      </trkpt>
      <trkpt lat="49.3201" lon="0.07057">
        <ele>16</ele>
        <time>2011-09-05T01:09:24Z</time>
      </trkpt>
      <trkpt lat="49.32097" lon="0.06973">
        <ele>14</ele>
        <time>2011-09-05T01:09:37Z</time>
      </trkpt>
      <trkpt lat="49.32142" lon="0.06895">
        <ele>13</ele>
        <time>2011-09-05T01:09:46Z</time>
      </trkpt>
      <trkpt lat="49.32157" lon="0.06888">
        <ele>13</ele>
        <time>2011-09-05T01:09:49Z</time>
      </trkpt>
      <trkpt lat="49.32183" lon="0.06886">
        <ele>13</ele>
        <time>2011-09-05T01:09:52Z</time>
      </trkpt>
      <trkpt lat="49.32209" lon="0.06873">
        <ele>12</ele>
        <time>2011-09-05T01:09:56Z</time>
      </trkpt>
      <trkpt lat="49.32291" lon="0.06768">
        <ele>12</ele>
        <time>2011-09-05T01:10:10Z</time>
      </trkpt>
      <trkpt lat="49.32325" lon="0.06738">
        <ele>13</ele>
        <time>2011-09-05T01:10:18Z</time>
      </trkpt>
      <trkpt lat="49.32325" lon="0.06738">
        <ele>13</ele>
        <time>2011-09-05T01:10:19Z</time>
      </trkpt>
      <trkpt lat="49.32445" lon="0.06683">
        <ele>14</ele>
        <time>2011-09-05T01:10:38Z</time>
      </trkpt>
      <trkpt lat="49.32407" lon="0.06605">
        <ele>15</ele>
        <time>2011-09-05T01:10:49Z</time>
      </trkpt>
      <trkpt lat="49.32348" lon="0.06518">
        <ele>17</ele>
        <time>2011-09-05T01:11:04Z</time>
      </trkpt>
      <trkpt lat="49.32375" lon="0.06484">
        <ele>17</ele>
        <time>2011-09-05T01:11:11Z</time>
      </trkpt>
      <trkpt lat="49.32437" lon="0.06428">
        <ele>19</ele>
        <time>2011-09-05T01:11:23Z</time>
      </trkpt>
      <trkpt lat="49.32459" lon="0.064">
        <ele>20</ele>
        <time>2011-09-05T01:11:30Z</time>
      </trkpt>
      <trkpt lat="49.3249" lon="0.06347">
        <ele>21</ele>
        <time>2011-09-05T01:11:40Z</time>
      </trkpt>
      <trkpt lat="49.3252" lon="0.06266">
        <ele>24</ele>
        <time>2011-09-05T01:11:54Z</time>
      </trkpt>
      <trkpt lat="49.32535" lon="0.06245">
        <ele>24</ele>
        <time>2011-09-05T01:11:58Z</time>
      </trkpt>
      <trkpt lat="49.32545" lon="0.06239">
        <ele>25</ele>
        <time>2011-09-05T01:12:00Z</time>
      </trkpt>
      <trkpt lat="49.32561" lon="0.06238">
        <ele>25</ele>
        <time>2011-09-05T01:12:04Z</time>
      </trkpt>
      <trkpt lat="49.32627" lon="0.06256">
        <ele>28</ele>
        <time>2011-09-05T01:12:18Z</time>
      </trkpt>
      <trkpt lat="49.32717" lon="0.06266">
        <ele>30</ele>
        <time>2011-09-05T01:12:35Z</time>
      </trkpt>
      <trkpt lat="49.32908" lon="0.0626">
        <ele>38</ele>
        <time>2011-09-05T01:13:20Z</time>
      </trkpt>
      <trkpt lat="49.32999" lon="0.06249">
        <ele>48</ele>
        <time>2011-09-05T01:13:56Z</time>
      </trkpt>
      <trkpt lat="49.33018" lon="0.06235">
        <ele>49</ele>
        <time>2011-09-05T01:14:03Z</time>
      </trkpt>
      <trkpt lat="49.33085" lon="0.06133">
        <ele>58</ele>
        <time>2011-09-05T01:14:36Z</time>
      </trkpt>
      <trkpt lat="49.33119" lon="0.06089">
        <ele>60</ele>
        <time>2011-09-05T01:14:49Z</time>
      </trkpt>
      <trkpt lat="49.33215" lon="0.05971">
        <ele>69</ele>
        <time>2011-09-05T01:15:24Z</time>
      </trkpt>
      <trkpt lat="49.3323" lon="0.05961">
        <ele>70</ele>
        <time>2011-09-05T01:15:30Z</time>
      </trkpt>
      <trkpt lat="49.33243" lon="0.05963">
        <ele>71</ele>
        <time>2011-09-05T01:15:34Z</time>
      </trkpt>
      <trkpt lat="49.33251" lon="0.0597">
        <ele>72</ele>
        <time>2011-09-05T01:15:37Z</time>
      </trkpt>
      <trkpt lat="49.3326" lon="0.05996">
        <ele>73</ele>
        <time>2011-09-05T01:15:44Z</time>
      </trkpt>
      <trkpt lat="49.33256" lon="0.06021">
        <ele>75</ele>
        <time>2011-09-05T01:15:50Z</time>
      </trkpt>
      <trkpt lat="49.3323" lon="0.06083">
        <ele>79</ele>
        <time>2011-09-05T01:16:06Z</time>
      </trkpt>
      <trkpt lat="49.33231" lon="0.06111">
        <ele>81</ele>
        <time>2011-09-05T01:16:12Z</time>
      </trkpt>
      <trkpt lat="49.33238" lon="0.06124">
        <ele>81</ele>
        <time>2011-09-05T01:16:16Z</time>
      </trkpt>
      <trkpt lat="49.33263" lon="0.06144">
        <ele>84</ele>
        <time>2011-09-05T01:16:25Z</time>
      </trkpt>
      <trkpt lat="49.33329" lon="0.06182">
        <ele>90</ele>
        <time>2011-09-05T01:16:48Z</time>
      </trkpt>
      <trkpt lat="49.33383" lon="0.06208">
        <ele>90</ele>
        <time>2011-09-05T01:16:56Z</time>
      </trkpt>
      <trkpt lat="49.33412" lon="0.06215">
        <ele>90</ele>
        <time>2011-09-05T01:17:00Z</time>
      </trkpt>
      <trkpt lat="49.33426" lon="0.06151">
        <ele>90</ele>
        <time>2011-09-05T01:17:06Z</time>
      </trkpt>
      <trkpt lat="49.33442" lon="0.06115">
        <ele>89</ele>
        <time>2011-09-05T01:17:09Z</time>
      </trkpt>
      <trkpt lat="49.33462" lon="0.06088">
        <ele>89</ele>
        <time>2011-09-05T01:17:13Z</time>
      </trkpt>
      <trkpt lat="49.33488" lon="0.06086">
        <ele>88</ele>
        <time>2011-09-05T01:17:16Z</time>
      </trkpt>
      <trkpt lat="49.33573" lon="0.06116">
        <ele>87</ele>
        <time>2011-09-05T01:17:28Z</time>
      </trkpt>
      <trkpt lat="49.33612" lon="0.06119">
        <ele>85</ele>
        <time>2011-09-05T01:17:33Z</time>
      </trkpt>
      <trkpt lat="49.33743" lon="0.06087">
        <ele>79</ele>
        <time>2011-09-05T01:17:51Z</time>
      </trkpt>
      <trkpt lat="49.33743" lon="0.06087">
        <ele>79</ele>
        <time>2011-09-05T01:17:52Z</time>
      </trkpt>
      <trkpt lat="49.33817" lon="0.06102">
        <ele>70</ele>
        <time>2011-09-05T01:18:02Z</time>
      </trkpt>
      <trkpt lat="49.33834" lon="0.06098">
        <ele>68</ele>
        <time>2011-09-05T01:18:04Z</time>
      </trkpt>
      <trkpt lat="49.3385" lon="0.06083">
        <ele>66</ele>
        <time>2011-09-05T01:18:07Z</time>
      </trkpt>
      <trkpt lat="49.33861" lon="0.06063">
        <ele>64</ele>
        <time>2011-09-05T01:18:09Z</time>
      </trkpt>
      <trkpt lat="49.3388" lon="0.06011">
        <ele>60</ele>
        <time>2011-09-05T01:18:14Z</time>
      </trkpt>
      <trkpt lat="49.33892" lon="0.06002">
        <ele>58</ele>
        <time>2011-09-05T01:18:16Z</time>
      </trkpt>
      <trkpt lat="49.33984" lon="0.0601">
        <ele>49</ele>
        <time>2011-09-05T01:18:28Z</time>
      </trkpt>
      <trkpt lat="49.3405" lon="0.06045">
        <ele>41</ele>
        <time>2011-09-05T01:18:38Z</time>
      </trkpt>
      <trkpt lat="49.34101" lon="0.06052">
        <ele>36</ele>
        <time>2011-09-05T01:18:44Z</time>
      </trkpt>
      <trkpt lat="49.34286" lon="0.06043">
        <ele>12</ele>
        <time>2011-09-05T01:19:09Z</time>
      </trkpt>
      <trkpt lat="49.34436" lon="0.05992">
        <ele>3</ele>
        <time>2011-09-05T01:19:30Z</time>
      </trkpt>
      <trkpt lat="49.3449" lon="0.06236">
        <ele>5</ele>
        <time>2011-09-05T01:19:57Z</time>
      </trkpt>
      <trkpt lat="49.34512" lon="0.06268">
        <ele>5</ele>
        <time>2011-09-05T01:20:02Z</time>
      </trkpt>
      <trkpt lat="49.34553" lon="0.06313">
        <ele>6</ele>
        <time>2011-09-05T01:20:12Z</time>
      </trkpt>
      <trkpt lat="49.3457" lon="0.06326">
        <ele>7</ele>
        <time>2011-09-05T01:20:15Z</time>
      </trkpt>
      <trkpt lat="49.34642" lon="0.06333">
        <ele>6</ele>
        <time>2011-09-05T01:20:25Z</time>
      </trkpt>
      <trkpt lat="49.34719" lon="0.06355">
        <ele>5</ele>
        <time>2011-09-05T01:20:35Z</time>
      </trkpt>
      <trkpt lat="49.34741" lon="0.0635">
        <ele>4</ele>
        <time>2011-09-05T01:20:38Z</time>
      </trkpt>
      <trkpt lat="49.34768" lon="0.06333">
        <ele>3</ele>
        <time>2011-09-05T01:20:42Z</time>
      </trkpt>
      <trkpt lat="49.34768" lon="0.06316">
        <ele>3</ele>
        <time>2011-09-05T01:20:44Z</time>
      </trkpt>
      <trkpt lat="49.34777" lon="0.06291">
        <ele>3</ele>
        <time>2011-09-05T01:20:46Z</time>
      </trkpt>
      <trkpt lat="49.34777" lon="0.06291">
        <ele>3</ele>
        <time>2011-09-05T01:20:47Z</time>
      </trkpt>
      <trkpt lat="49.34768" lon="0.06316">
        <ele>3</ele>
        <time>2011-09-05T01:20:50Z</time>
      </trkpt>
      <trkpt lat="49.34768" lon="0.06333">
        <ele>3</ele>
        <time>2011-09-05T01:20:51Z</time>
      </trkpt>
      <trkpt lat="49.34808" lon="0.06311">
        <ele>3</ele>
        <time>2011-09-05T01:20:58Z</time>
      </trkpt>
      <trkpt lat="49.3484" lon="0.06304">
        <ele>3</ele>
        <time>2011-09-05T01:21:03Z</time>
      </trkpt>
      <trkpt lat="49.34857" lon="0.06309">
        <ele>3</ele>
        <time>2011-09-05T01:21:05Z</time>
      </trkpt>
      <trkpt lat="49.34877" lon="0.06329">
        <ele>4</ele>
        <time>2011-09-05T01:21:09Z</time>
      </trkpt>
      <trkpt lat="49.34903" lon="0.0636">
        <ele>4</ele>
        <time>2011-09-05T01:21:14Z</time>
      </trkpt>
      <trkpt lat="49.35092" lon="0.06542">
        <ele>5</ele>
        <time>2011-09-05T01:21:45Z</time>
      </trkpt>
      <trkpt lat="49.35104" lon="0.0656">
        <ele>4</ele>
        <time>2011-09-05T01:21:48Z</time>
      </trkpt>
      <trkpt lat="49.35109" lon="0.06587">
        <ele>4</ele>
        <time>2011-09-05T01:21:50Z</time>
      </trkpt>
      <trkpt lat="49.35172" lon="0.06752">
        <ele>4</ele>
        <time>2011-09-05T01:22:07Z</time>
      </trkpt>
      <trkpt lat="49.35167" lon="0.06765">
        <ele>4</ele>
        <time>2011-09-05T01:22:08Z</time>
      </trkpt>
      <trkpt lat="49.35168" lon="0.0678">
        <ele>4</ele>
        <time>2011-09-05T01:22:10Z</time>
      </trkpt>
      <trkpt lat="49.35175" lon="0.06789">
        <ele>4</ele>
        <time>2011-09-05T01:22:11Z</time>
      </trkpt>
      <trkpt lat="49.35186" lon="0.06789">
        <ele>4</ele>
        <time>2011-09-05T01:22:13Z</time>
      </trkpt>
      <trkpt lat="49.35289" lon="0.07082">
        <ele>5</ele>
        <time>2011-09-05T01:22:44Z</time>
      </trkpt>
      <trkpt lat="49.35192" lon="0.07092">
        <ele>4</ele>
        <time>2011-09-05T01:22:56Z</time>
      </trkpt>
      <trkpt lat="49.35189" lon="0.0704">
        <ele>4</ele>
        <time>2011-09-05T01:23:02Z</time>
      </trkpt>
      <trkpt lat="49.35121" lon="0.06856">
        <ele>5</ele>
        <time>2011-09-05T01:23:22Z</time>
      </trkpt>
    </trkseg>
  </trk>
</gpx>